createdAt,value
2019-06-20T00:00:59.738Z,20.28
2019-06-20T00:01:59.662Z,20.34
2019-06-20T00:02:59.612Z,20.32
2019-06-20T00:03:59.599Z,20.36
2019-06-20T00:04:59.522Z,20.40
2019-06-20T00:05:59.513Z,20.29
2019-06-20T00:06:59.433Z,20.37
2019-06-20T00:07:59.390Z,20.26
2019-06-20T00:08:59.350Z,20.32
2019-06-20T00:09:59.337Z,20.31
2019-06-20T00:10:59.249Z,20.36
2019-06-20T00:11:59.238Z,20.41
2019-06-20T00:13:00.780Z,20.34
2019-06-20T00:13:59.115Z,20.26
2019-06-20T00:14:59.104Z,20.36
2019-06-20T00:15:59.027Z,20.34
2019-06-20T00:16:59.594Z,20.41
2019-06-20T00:17:58.968Z,20.36
2019-06-20T00:18:58.898Z,20.39
2019-06-20T00:19:58.890Z,20.39
2019-06-20T00:20:58.800Z,20.36
2019-06-20T00:21:58.762Z,20.24
2019-06-20T00:22:58.720Z,20.22
2019-06-20T00:23:58.667Z,20.16
2019-06-20T00:24:58.664Z,20.16
2019-06-20T00:25:58.606Z,20.10
2019-06-20T00:26:58.535Z,20.07
2019-06-20T00:27:58.492Z,20.07
2019-06-20T00:28:58.457Z,20.02
2019-06-20T00:29:58.396Z,19.85
2019-06-20T00:30:58.381Z,19.86
2019-06-20T00:31:58.307Z,19.89
2019-06-20T00:32:58.258Z,19.84
2019-06-20T00:33:58.214Z,19.77
2019-06-20T00:34:58.173Z,19.55
2019-06-20T00:35:58.161Z,19.63
2019-06-20T00:36:58.113Z,19.56
2019-06-20T00:37:58.038Z,19.58
2019-06-20T00:38:57.989Z,19.62
2019-06-20T00:39:57.942Z,19.55
2019-06-20T00:40:57.914Z,19.51
2019-06-20T00:41:57.900Z,19.58
2019-06-20T00:42:57.805Z,19.59
2019-06-20T00:43:57.763Z,19.66
2019-06-20T00:44:57.717Z,19.58
2019-06-20T00:45:57.675Z,19.71
2019-06-20T00:46:57.658Z,19.69
2019-06-20T00:47:57.586Z,19.73
2019-06-20T00:48:57.537Z,19.74
2019-06-20T00:49:57.492Z,19.73
2019-06-20T00:50:57.447Z,19.79
2019-06-20T00:51:57.426Z,19.73
2019-06-20T00:52:57.390Z,19.77
2019-06-20T00:53:57.315Z,19.81
2019-06-20T00:54:57.308Z,19.71
2019-06-20T00:55:57.237Z,19.81
2019-06-20T00:56:57.181Z,19.82
2019-06-20T00:57:57.137Z,19.71
2019-06-20T00:58:57.086Z,19.76
2019-06-20T00:59:57.076Z,19.82
2019-06-20T01:00:56.996Z,19.84
2019-06-20T01:01:56.980Z,19.76
2019-06-20T01:02:56.910Z,19.74
2019-06-20T01:03:56.855Z,19.56
2019-06-20T01:04:56.811Z,19.59
2019-06-20T01:05:56.798Z,19.58
2019-06-20T01:06:56.761Z,19.62
2019-06-20T01:07:56.682Z,19.63
2019-06-20T01:08:56.633Z,19.59
2019-06-20T01:09:56.586Z,19.59
2019-06-20T01:10:56.548Z,19.54
2019-06-20T01:11:56.529Z,19.47
2019-06-20T01:12:56.463Z,19.54
2019-06-20T01:13:56.401Z,19.51
2019-06-20T01:14:56.357Z,19.51
2019-06-20T01:15:56.311Z,19.44
2019-06-20T01:16:56.307Z,19.55
2019-06-20T01:17:56.218Z,19.55
2019-06-20T01:18:56.176Z,19.58
2019-06-20T01:19:58.197Z,19.55
2019-06-20T01:20:56.082Z,19.62
2019-06-20T01:21:56.078Z,19.45
2019-06-20T01:22:55.995Z,19.49
2019-06-20T01:23:55.948Z,19.41
2019-06-20T01:24:55.899Z,19.44
2019-06-20T01:25:55.858Z,19.36
2019-06-20T01:26:55.842Z,19.34
2019-06-20T01:27:55.767Z,19.26
2019-06-20T01:28:55.722Z,19.16
2019-06-20T01:29:55.673Z,19.18
2019-06-20T01:30:55.630Z,19.02
2019-06-20T01:31:55.631Z,19.04
2019-06-20T01:32:55.572Z,19.08
2019-06-20T01:33:55.489Z,18.96
2019-06-20T01:34:55.476Z,18.92
2019-06-20T01:35:55.406Z,18.86
2019-06-20T01:36:55.378Z,18.90
2019-06-20T01:37:55.302Z,18.98
2019-06-20T01:38:55.257Z,18.86
2019-06-20T01:39:55.212Z,18.92
2019-06-20T01:40:55.164Z,18.89
2019-06-20T01:41:55.149Z,18.89
2019-06-20T01:42:55.100Z,18.90
2019-06-20T01:43:55.061Z,18.88
2019-06-20T01:44:55.013Z,18.96
2019-06-20T01:45:54.944Z,18.92
2019-06-20T01:46:54.920Z,18.89
2019-06-20T01:47:54.875Z,18.86
2019-06-20T01:48:54.792Z,18.83
2019-06-20T01:49:54.749Z,18.78
2019-06-20T01:50:54.726Z,18.70
2019-06-20T01:51:54.652Z,18.73
2019-06-20T01:52:54.611Z,18.68
2019-06-20T01:53:54.589Z,18.68
2019-06-20T01:54:54.519Z,18.59
2019-06-20T01:55:54.472Z,18.63
2019-06-20T01:56:54.423Z,18.60
2019-06-20T01:57:54.417Z,18.65
2019-06-20T01:58:54.342Z,18.62
2019-06-20T01:59:54.278Z,18.66
2019-06-20T02:00:54.255Z,18.59
2019-06-20T02:01:54.184Z,18.52
2019-06-20T02:02:54.169Z,18.33
2019-06-20T02:03:54.093Z,18.40
2019-06-20T02:04:54.054Z,18.35
2019-06-20T02:05:53.998Z,18.25
2019-06-20T02:06:53.984Z,18.16
2019-06-20T02:07:53.912Z,18.20
2019-06-20T02:08:53.888Z,18.11
2019-06-20T02:09:53.812Z,18.19
2019-06-20T02:10:53.770Z,18.16
2019-06-20T02:11:53.717Z,18.19
2019-06-20T02:12:53.672Z,18.11
2019-06-20T02:14:06.406Z,18.11
2019-06-20T02:14:53.581Z,18.19
2019-06-20T02:15:53.534Z,18.19
2019-06-20T02:16:53.485Z,18.22
2019-06-20T02:17:53.443Z,18.16
2019-06-20T02:18:53.418Z,18.29
2019-06-20T02:19:53.380Z,18.23
2019-06-20T02:20:53.334Z,18.23
2019-06-20T02:21:53.294Z,18.28
2019-06-20T02:22:53.203Z,18.29
2019-06-20T02:23:53.172Z,18.08
2019-06-20T02:24:53.143Z,18.15
2019-06-20T02:25:53.067Z,18.11
2019-06-20T02:26:53.016Z,18.05
2019-06-20T02:27:52.969Z,18.07
2019-06-20T02:28:52.922Z,18.15
2019-06-20T02:29:52.915Z,18.10
2019-06-20T02:30:52.852Z,18.25
2019-06-20T02:31:52.781Z,18.22
2019-06-20T02:32:52.738Z,18.03
2019-06-20T02:33:52.723Z,17.94
2019-06-20T02:34:52.639Z,17.92
2019-06-20T02:35:52.592Z,17.83
2019-06-20T02:36:52.574Z,17.80
2019-06-20T02:37:52.504Z,17.78
2019-06-20T02:38:52.453Z,17.71
2019-06-20T02:39:52.406Z,17.70
2019-06-20T02:40:52.357Z,17.60
2019-06-20T02:41:52.342Z,17.59
2019-06-20T02:42:52.275Z,17.49
2019-06-20T02:43:52.255Z,17.54
2019-06-20T02:44:52.170Z,17.49
2019-06-20T02:45:52.124Z,17.39
2019-06-20T02:46:52.076Z,17.36
2019-06-20T02:47:52.028Z,17.45
2019-06-20T02:48:52.017Z,17.46
2019-06-20T02:49:51.936Z,17.45
2019-06-20T02:50:51.897Z,17.54
2019-06-20T02:51:51.839Z,17.59
2019-06-20T02:52:51.796Z,17.65
2019-06-20T02:53:51.777Z,17.68
2019-06-20T02:54:51.708Z,17.74
2019-06-20T02:55:51.655Z,17.74
2019-06-20T02:56:51.601Z,17.76
2019-06-20T02:57:51.558Z,17.74
2019-06-20T02:58:51.541Z,17.59
2019-06-20T02:59:51.462Z,17.54
2019-06-20T03:00:51.418Z,17.52
2019-06-20T03:01:51.374Z,17.42
2019-06-20T03:02:51.380Z,17.41
2019-06-20T03:03:51.270Z,17.42
2019-06-20T03:04:51.230Z,17.29
2019-06-20T03:05:51.180Z,17.34
2019-06-20T03:06:51.130Z,17.36
2019-06-20T03:07:51.112Z,17.34
2019-06-20T03:08:51.034Z,17.38
2019-06-20T03:09:51.024Z,17.48
2019-06-20T03:10:50.942Z,17.45
2019-06-20T03:11:50.892Z,17.51
2019-06-20T03:12:50.879Z,17.52
2019-06-20T03:13:50.804Z,17.44
2019-06-20T03:14:50.750Z,17.38
2019-06-20T03:15:50.705Z,17.27
2019-06-20T03:16:50.716Z,17.24
2019-06-20T03:17:50.608Z,17.27
2019-06-20T03:18:50.559Z,17.16
2019-06-20T03:19:50.516Z,17.16
2019-06-20T03:20:50.465Z,17.11
2019-06-20T03:21:50.480Z,17.12
2019-06-20T03:22:50.389Z,17.04
2019-06-20T03:23:50.338Z,16.99
2019-06-20T03:24:50.276Z,16.93
2019-06-20T03:25:50.231Z,16.89
2019-06-20T03:26:50.212Z,17.05
2019-06-20T03:27:50.132Z,16.96
2019-06-20T03:28:50.115Z,16.86
2019-06-20T03:29:50.065Z,16.90
2019-06-20T03:30:49.992Z,16.89
2019-06-20T03:31:49.949Z,16.84
2019-06-20T03:32:49.913Z,16.81
2019-06-20T03:33:49.851Z,16.83
2019-06-20T03:34:49.830Z,16.74
2019-06-20T03:35:49.749Z,16.72
2019-06-20T03:36:49.735Z,16.86
2019-06-20T03:37:50.412Z,16.72
2019-06-20T03:38:49.642Z,16.68
2019-06-20T03:39:49.603Z,16.72
2019-06-20T03:40:49.512Z,16.71
2019-06-20T03:41:49.462Z,16.71
2019-06-20T03:42:49.420Z,16.76
2019-06-20T03:43:49.373Z,16.72
2019-06-20T03:45:01.640Z,16.71
2019-06-20T03:45:49.270Z,16.68
2019-06-20T03:46:49.221Z,16.75
2019-06-20T03:47:49.180Z,16.71
2019-06-20T03:48:49.169Z,16.75
2019-06-20T03:49:49.084Z,16.78
2019-06-20T03:50:49.110Z,16.74
2019-06-20T03:51:51.668Z,16.79
2019-06-20T03:52:48.948Z,16.78
2019-06-20T03:53:48.927Z,16.78
2019-06-20T03:54:48.836Z,16.81
2019-06-20T03:55:48.838Z,16.78
2019-06-20T03:56:48.742Z,16.83
2019-06-20T03:57:48.701Z,16.79
2019-06-20T03:58:48.649Z,16.78
2019-06-20T03:59:48.601Z,16.75
2019-06-20T04:00:48.592Z,16.75
2019-06-20T04:01:49.296Z,16.74
2019-06-20T04:02:48.468Z,16.79
2019-06-20T04:03:48.408Z,16.81
2019-06-20T04:04:48.403Z,16.75
2019-06-20T04:05:48.341Z,16.74
2019-06-20T04:06:48.260Z,16.75
2019-06-20T04:07:48.214Z,16.68
2019-06-20T04:08:48.195Z,16.74
2019-06-20T04:09:48.120Z,16.71
2019-06-20T04:10:48.067Z,16.71
2019-06-20T04:11:48.020Z,16.57
2019-06-20T04:12:47.978Z,16.72
2019-06-20T04:13:47.972Z,16.78
2019-06-20T04:14:49.056Z,16.71
2019-06-20T04:15:47.867Z,16.74
2019-06-20T04:16:47.779Z,16.68
2019-06-20T04:17:47.736Z,16.68
2019-06-20T04:18:47.716Z,16.65
2019-06-20T04:19:47.639Z,16.60
2019-06-20T04:20:47.603Z,16.61
2019-06-20T04:21:47.589Z,16.64
2019-06-20T04:22:47.490Z,16.54
2019-06-20T04:23:47.443Z,16.57
2019-06-20T04:24:47.427Z,16.57
2019-06-20T04:25:47.351Z,16.60
2019-06-20T04:26:47.333Z,16.57
2019-06-20T04:27:47.252Z,16.54
2019-06-20T04:28:47.232Z,16.43
2019-06-20T04:29:47.152Z,16.57
2019-06-20T04:30:47.107Z,16.47
2019-06-20T04:31:47.090Z,16.43
2019-06-20T04:32:47.007Z,16.50
2019-06-20T04:33:46.972Z,16.47
2019-06-20T04:34:46.951Z,16.47
2019-06-20T04:35:46.877Z,16.42
2019-06-20T04:36:48.134Z,16.46
2019-06-20T04:37:46.767Z,16.47
2019-06-20T04:38:46.718Z,16.53
2019-06-20T04:39:46.669Z,16.54
2019-06-20T04:40:46.664Z,16.57
2019-06-20T04:41:46.576Z,16.47
2019-06-20T04:42:46.523Z,16.54
2019-06-20T04:43:46.474Z,16.56
2019-06-20T04:44:46.426Z,16.51
2019-06-20T04:45:46.412Z,16.50
2019-06-20T04:46:46.363Z,16.58
2019-06-20T04:47:46.278Z,16.58
2019-06-20T04:48:46.232Z,16.57
2019-06-20T04:49:46.186Z,16.51
2019-06-20T04:50:46.135Z,16.54
2019-06-20T04:51:46.120Z,16.51
2019-06-20T04:52:46.048Z,16.56
2019-06-20T04:53:45.990Z,16.46
2019-06-20T04:54:45.942Z,16.50
2019-06-20T04:55:45.891Z,16.49
2019-06-20T04:56:45.882Z,16.53
2019-06-20T04:57:45.796Z,16.57
2019-06-20T04:58:45.765Z,16.56
2019-06-20T04:59:45.713Z,16.57
2019-06-20T05:00:45.653Z,16.64
2019-06-20T05:01:45.634Z,16.66
2019-06-20T05:02:45.552Z,16.58
2019-06-20T05:03:45.553Z,16.56
2019-06-20T05:04:45.477Z,16.56
2019-06-20T05:05:45.408Z,16.56
2019-06-20T05:06:45.399Z,16.64
2019-06-20T05:07:45.322Z,16.68
2019-06-20T05:08:45.261Z,16.71
2019-06-20T05:09:45.207Z,16.61
2019-06-20T05:10:45.165Z,16.68
2019-06-20T05:11:45.147Z,16.69
2019-06-20T05:12:45.069Z,16.76
2019-06-20T05:13:45.015Z,16.84
2019-06-20T05:14:44.968Z,16.89
2019-06-20T05:15:52.660Z,16.81
2019-06-20T05:16:44.902Z,16.87
2019-06-20T05:17:44.851Z,16.86
2019-06-20T05:18:44.810Z,16.94
2019-06-20T05:19:44.729Z,16.99
2019-06-20T05:20:44.682Z,16.96
2019-06-20T05:21:44.625Z,17.11
2019-06-20T05:22:44.609Z,17.20
2019-06-20T05:23:44.532Z,17.14
2019-06-20T05:24:44.482Z,17.19
2019-06-20T05:25:44.436Z,17.11
2019-06-20T05:26:44.386Z,17.19
2019-06-20T05:27:44.389Z,17.19
2019-06-20T05:28:44.300Z,17.23
2019-06-20T05:29:44.241Z,17.26
2019-06-20T05:30:44.192Z,17.22
2019-06-20T05:31:44.150Z,17.27
2019-06-20T05:32:44.127Z,17.31
2019-06-20T05:33:44.050Z,17.31
2019-06-20T05:34:44.004Z,17.34
2019-06-20T05:35:43.948Z,17.39
2019-06-20T05:36:43.905Z,17.41
2019-06-20T05:37:43.886Z,17.39
2019-06-20T05:38:43.808Z,17.39
2019-06-20T05:39:43.762Z,17.44
2019-06-20T05:40:43.756Z,17.34
2019-06-20T05:41:43.660Z,17.42
2019-06-20T05:42:43.611Z,17.45
2019-06-20T05:43:43.571Z,17.51
2019-06-20T05:44:43.547Z,17.54
2019-06-20T05:45:46.291Z,17.59
2019-06-20T05:46:43.427Z,17.63
2019-06-20T05:47:43.378Z,17.65
2019-06-20T05:48:43.456Z,17.60
2019-06-20T05:49:43.275Z,17.64
2019-06-20T05:50:43.229Z,17.65
2019-06-20T05:51:43.188Z,17.60
2019-06-20T05:52:43.135Z,17.60
2019-06-20T05:53:43.119Z,17.59
2019-06-20T05:54:43.033Z,17.70
2019-06-20T05:55:43.023Z,17.59
2019-06-20T05:56:43.639Z,17.63
2019-06-20T05:57:42.893Z,17.60
2019-06-20T05:58:42.845Z,17.63
2019-06-20T05:59:43.426Z,17.71
2019-06-20T06:00:42.787Z,17.70
2019-06-20T06:01:42.704Z,17.65
2019-06-20T06:02:42.650Z,17.68
2019-06-20T06:03:42.604Z,17.76
2019-06-20T06:04:42.953Z,17.74
2019-06-20T06:05:42.552Z,17.68
2019-06-20T06:06:42.964Z,17.76
2019-06-20T06:07:42.413Z,17.74
2019-06-20T06:08:42.369Z,17.82
2019-06-20T06:09:42.322Z,17.83
2019-06-20T06:10:42.305Z,17.90
2019-06-20T06:11:42.220Z,17.97
2019-06-20T06:12:42.219Z,18.00
2019-06-20T06:13:42.124Z,17.98
2019-06-20T06:14:42.077Z,18.18
2019-06-20T06:15:42.415Z,18.22
2019-06-20T06:16:44.212Z,18.34
2019-06-20T06:17:42.153Z,18.43
2019-06-20T06:18:41.922Z,18.33
2019-06-20T06:19:41.843Z,18.47
2019-06-20T06:20:44.727Z,18.55
2019-06-20T06:21:41.791Z,18.62
2019-06-20T06:22:44.659Z,18.65
2019-06-20T06:23:41.658Z,18.65
2019-06-20T06:24:41.606Z,18.75
2019-06-20T06:25:41.559Z,18.63
2019-06-20T06:26:41.507Z,18.59
2019-06-20T06:27:41.554Z,18.59
2019-06-20T06:28:41.415Z,18.55
2019-06-20T06:29:41.365Z,18.62
2019-06-20T06:30:41.321Z,18.73
2019-06-20T06:31:41.268Z,18.75
2019-06-20T06:32:41.276Z,18.88
2019-06-20T06:33:41.178Z,18.80
2019-06-20T06:34:41.132Z,18.75
2019-06-20T06:35:41.111Z,18.80
2019-06-20T06:36:41.048Z,18.62
2019-06-20T06:37:41.043Z,18.56
2019-06-20T06:38:40.945Z,18.68
2019-06-20T06:39:43.462Z,18.77
2019-06-20T06:40:40.886Z,18.73
2019-06-20T06:41:40.801Z,18.84
2019-06-20T06:42:40.753Z,18.95
2019-06-20T06:43:42.072Z,18.90
2019-06-20T06:44:40.660Z,18.96
2019-06-20T06:45:40.661Z,18.99
2019-06-20T06:46:47.098Z,18.98
2019-06-20T06:47:40.519Z,19.00
2019-06-20T06:48:40.515Z,18.89
2019-06-20T06:49:40.426Z,18.81
2019-06-20T06:50:40.387Z,18.63
2019-06-20T06:51:40.342Z,18.73
2019-06-20T06:52:40.282Z,18.77
2019-06-20T06:53:40.268Z,18.73
2019-06-20T06:54:40.193Z,18.86
2019-06-20T06:55:40.535Z,18.90
2019-06-20T06:56:40.140Z,18.89
2019-06-20T06:57:40.052Z,18.96
2019-06-20T06:58:40.009Z,18.99
2019-06-20T06:59:39.959Z,19.02
2019-06-20T07:00:39.917Z,18.93
2019-06-20T07:01:39.904Z,19.00
2019-06-20T07:02:39.814Z,18.98
2019-06-20T07:03:39.765Z,18.98
2019-06-20T07:04:39.730Z,19.12
2019-06-20T07:05:39.680Z,19.04
2019-06-20T07:06:39.656Z,19.09
2019-06-20T07:07:39.593Z,19.08
2019-06-20T07:08:39.533Z,19.12
2019-06-20T07:09:39.489Z,19.12
2019-06-20T07:10:39.441Z,19.15
2019-06-20T07:11:39.423Z,19.14
2019-06-20T07:12:39.346Z,19.29
2019-06-20T07:13:39.300Z,19.29
2019-06-20T07:14:42.543Z,19.39
2019-06-20T07:15:39.205Z,19.37
2019-06-20T07:16:39.200Z,19.54
2019-06-20T07:17:39.150Z,19.51
2019-06-20T07:18:39.069Z,19.52
2019-06-20T07:19:39.024Z,19.54
2019-06-20T07:20:38.973Z,19.62
2019-06-20T07:21:38.963Z,19.59
2019-06-20T07:22:38.952Z,19.63
2019-06-20T07:23:38.881Z,19.52
2019-06-20T07:24:38.785Z,19.66
2019-06-20T07:25:38.740Z,19.71
2019-06-20T07:26:38.695Z,19.73
2019-06-20T07:27:38.650Z,19.85
2019-06-20T07:28:38.644Z,19.91
2019-06-20T07:29:38.563Z,19.84
2019-06-20T07:30:38.513Z,19.91
2019-06-20T07:31:38.463Z,19.94
2019-06-20T07:32:38.432Z,20.04
2019-06-20T07:33:38.407Z,20.10
2019-06-20T07:34:38.329Z,20.22
2019-06-20T07:35:41.727Z,20.16
2019-06-20T07:36:38.256Z,20.09
2019-06-20T07:37:38.186Z,20.14
2019-06-20T07:38:38.151Z,20.26
2019-06-20T07:39:38.094Z,20.29
2019-06-20T07:40:38.082Z,20.24
2019-06-20T07:41:38.007Z,20.19
2019-06-20T07:42:37.990Z,20.07
2019-06-20T07:43:37.913Z,20.07
2019-06-20T07:44:37.869Z,20.07
2019-06-20T07:45:37.822Z,20.26
2019-06-20T07:46:37.806Z,20.32
2019-06-20T07:47:37.772Z,20.37
2019-06-20T07:48:37.682Z,20.59
2019-06-20T07:49:37.640Z,20.70
2019-06-20T07:50:39.434Z,20.67
2019-06-20T07:51:37.673Z,20.72
2019-06-20T07:52:37.504Z,20.69
2019-06-20T07:53:37.476Z,20.72
2019-06-20T07:54:37.414Z,20.77
2019-06-20T07:55:37.362Z,20.74
2019-06-20T07:56:37.358Z,20.69
2019-06-20T07:57:37.274Z,20.69
2019-06-20T07:58:37.242Z,20.74
2019-06-20T07:59:37.214Z,20.80
2019-06-20T08:00:37.151Z,20.81
2019-06-20T08:01:37.092Z,20.88
2019-06-20T08:02:37.055Z,20.85
2019-06-20T08:03:37.007Z,21.05
2019-06-20T08:04:36.988Z,21.17
2019-06-20T08:05:36.914Z,21.17
2019-06-20T08:06:36.870Z,21.12
2019-06-20T08:07:36.823Z,21.12
2019-06-20T08:08:36.775Z,21.15
2019-06-20T08:09:44.938Z,21.20
2019-06-20T08:10:36.684Z,21.18
2019-06-20T08:11:36.639Z,21.30
2019-06-20T08:12:36.597Z,21.37
2019-06-20T08:13:36.550Z,21.45
2019-06-20T08:14:36.553Z,21.45
2019-06-20T08:15:36.457Z,21.54
2019-06-20T08:16:36.416Z,21.66
2019-06-20T08:17:36.370Z,21.67
2019-06-20T08:18:36.320Z,21.69
2019-06-20T08:19:36.315Z,21.77
2019-06-20T08:20:36.236Z,21.80
2019-06-20T08:21:36.193Z,21.80
2019-06-20T08:22:36.143Z,21.98
2019-06-20T08:23:36.102Z,21.95
2019-06-20T08:24:36.116Z,21.95
2019-06-20T08:25:36.053Z,21.93
2019-06-20T08:26:35.964Z,21.98
2019-06-20T08:27:35.917Z,22.00
2019-06-20T08:28:35.874Z,21.95
2019-06-20T08:29:35.829Z,22.00
2019-06-20T08:30:35.834Z,21.89
2019-06-20T08:31:35.740Z,21.92
2019-06-20T08:32:35.699Z,21.80
2019-06-20T08:33:35.693Z,21.73
2019-06-20T08:34:35.609Z,21.67
2019-06-20T08:35:35.656Z,21.61
2019-06-20T08:36:35.550Z,21.60
2019-06-20T08:37:35.509Z,21.52
2019-06-20T08:38:35.442Z,21.60
2019-06-20T08:39:35.391Z,21.55
2019-06-20T08:40:35.343Z,21.58
2019-06-20T08:41:35.340Z,21.60
2019-06-20T08:42:35.300Z,21.66
2019-06-20T08:43:35.257Z,21.70
2019-06-20T08:44:35.166Z,21.82
2019-06-20T08:45:35.127Z,21.83
2019-06-20T08:46:35.076Z,22.02
2019-06-20T08:47:35.037Z,22.22
2019-06-20T08:48:35.025Z,22.29
2019-06-20T08:49:34.947Z,22.44
2019-06-20T08:50:34.904Z,22.54
2019-06-20T08:51:34.885Z,22.70
2019-06-20T08:52:34.821Z,23.02
2019-06-20T08:53:34.814Z,23.09
2019-06-20T08:54:34.736Z,23.40
2019-06-20T08:55:34.688Z,23.63
2019-06-20T08:56:34.640Z,23.78
2019-06-20T08:57:34.598Z,23.91
2019-06-20T08:58:34.590Z,23.77
2019-06-20T08:59:34.512Z,23.73
2019-06-20T09:00:34.483Z,23.74
2019-06-20T09:01:34.419Z,23.74
2019-06-20T09:02:34.380Z,23.74
2019-06-20T09:03:34.394Z,23.56
2019-06-20T09:04:34.291Z,23.44
2019-06-20T09:05:34.246Z,23.27
2019-06-20T09:06:34.230Z,23.13
2019-06-20T09:07:34.161Z,23.12
2019-06-20T09:08:34.157Z,22.98
2019-06-20T09:09:34.073Z,22.94
2019-06-20T09:10:34.032Z,23.05
2019-06-20T09:11:34.040Z,23.15
2019-06-20T09:12:33.946Z,23.13
2019-06-20T09:13:33.901Z,23.18
2019-06-20T09:14:33.872Z,23.09
2019-06-20T09:15:33.821Z,23.08
2019-06-20T09:16:33.808Z,22.90
2019-06-20T09:17:33.735Z,22.93
2019-06-20T09:18:33.697Z,22.84
2019-06-20T09:19:33.649Z,22.88
2019-06-20T09:20:33.606Z,22.85
2019-06-20T09:21:33.592Z,22.81
2019-06-20T09:22:33.524Z,22.76
2019-06-20T09:23:35.685Z,22.84
2019-06-20T09:24:33.462Z,22.98
2019-06-20T09:25:33.387Z,23.02
2019-06-20T09:26:33.347Z,23.15
2019-06-20T09:27:33.301Z,23.17
2019-06-20T09:28:33.336Z,23.13
2019-06-20T09:29:41.817Z,23.46
2019-06-20T09:30:33.170Z,23.78
2019-06-20T09:31:33.130Z,24.17
2019-06-20T09:32:33.086Z,24.50
2019-06-20T09:33:33.078Z,24.89
2019-06-20T09:34:33.003Z,25.07
2019-06-20T09:35:32.958Z,25.06
2019-06-20T09:36:32.915Z,25.31
2019-06-20T09:37:32.875Z,25.38
2019-06-20T09:38:32.886Z,25.65
2019-06-20T09:39:32.790Z,25.68
2019-06-20T09:40:32.808Z,25.85
2019-06-20T09:41:32.712Z,25.83
2019-06-20T09:42:32.661Z,25.72
2019-06-20T09:43:32.621Z,25.63
2019-06-20T09:44:32.616Z,25.54
2019-06-20T09:45:32.540Z,25.48
2019-06-20T09:46:32.502Z,25.63
2019-06-20T09:47:32.455Z,25.81
2019-06-20T09:48:32.417Z,25.91
2019-06-20T09:49:32.401Z,25.91
2019-06-20T09:50:32.334Z,25.54
2019-06-20T09:51:32.289Z,25.50
2019-06-20T09:52:32.253Z,25.41
2019-06-20T09:53:32.240Z,25.36
2019-06-20T09:54:32.163Z,25.44
2019-06-20T09:55:32.126Z,25.53
2019-06-20T09:56:32.082Z,25.68
2019-06-20T09:57:32.042Z,25.80
2019-06-20T09:58:32.042Z,25.87
2019-06-20T09:59:31.957Z,25.81
2019-06-20T10:00:31.924Z,25.73
2019-06-20T10:01:31.887Z,25.78
2019-06-20T10:02:31.840Z,25.90
2019-06-20T10:03:31.828Z,25.78
2019-06-20T10:04:31.755Z,25.62
2019-06-20T10:05:31.754Z,25.44
2019-06-20T10:06:31.669Z,25.03
2019-06-20T10:07:31.668Z,24.68
2019-06-20T10:08:31.593Z,24.78
2019-06-20T10:09:31.548Z,24.98
2019-06-20T10:10:31.507Z,25.14
2019-06-20T10:11:31.470Z,25.41
2019-06-20T10:12:31.465Z,25.48
2019-06-20T10:13:32.825Z,25.59
2019-06-20T10:14:31.344Z,25.51
2019-06-20T10:15:31.306Z,25.48
2019-06-20T10:16:45.037Z,25.38
2019-06-20T10:17:31.260Z,25.14
2019-06-20T10:18:31.212Z,24.78
2019-06-20T10:19:31.139Z,24.54
2019-06-20T10:20:31.132Z,24.42
2019-06-20T10:21:31.061Z,24.39
2019-06-20T10:22:31.020Z,24.54
2019-06-20T10:23:31.008Z,24.70
2019-06-20T10:24:30.937Z,24.69
2019-06-20T10:25:30.895Z,24.73
2019-06-20T10:26:30.850Z,24.86
2019-06-20T10:27:30.809Z,24.91
2019-06-20T10:28:30.802Z,25.10
2019-06-20T10:29:30.729Z,25.03
2019-06-20T10:30:30.728Z,25.03
2019-06-20T10:31:30.646Z,24.92
2019-06-20T10:32:30.607Z,24.88
2019-06-20T10:33:30.562Z,24.69
2019-06-20T10:34:31.243Z,24.85
2019-06-20T10:35:30.512Z,24.96
2019-06-20T10:36:30.440Z,25.28
2019-06-20T10:37:30.399Z,25.53
2019-06-20T10:38:30.392Z,25.62
2019-06-20T10:39:30.316Z,25.72
2019-06-20T10:40:30.296Z,26.05
2019-06-20T10:41:30.233Z,26.36
2019-06-20T10:42:30.195Z,26.75
2019-06-20T10:43:30.191Z,26.95
2019-06-20T10:44:30.139Z,27.15
2019-06-20T10:45:30.073Z,27.08
2019-06-20T10:46:30.031Z,27.17
2019-06-20T10:47:34.965Z,27.30
2019-06-20T10:48:29.980Z,27.42
2019-06-20T10:49:30.740Z,27.83
2019-06-20T10:50:29.873Z,27.98
2019-06-20T10:51:29.836Z,28.02
2019-06-20T10:52:29.787Z,28.11
2019-06-20T10:53:29.787Z,28.07
2019-06-20T10:54:29.750Z,27.93
2019-06-20T10:55:29.670Z,27.71
2019-06-20T10:56:29.632Z,27.65
2019-06-20T10:57:29.588Z,27.77
2019-06-20T10:58:29.596Z,27.63
2019-06-20T10:59:29.518Z,27.40
2019-06-20T11:00:31.825Z,27.14
2019-06-20T11:01:29.436Z,26.74
2019-06-20T11:02:29.390Z,26.63
2019-06-20T11:03:29.417Z,26.80
2019-06-20T11:04:29.313Z,26.95
2019-06-20T11:05:29.309Z,26.89
2019-06-20T11:06:29.233Z,26.93
2019-06-20T11:07:29.195Z,27.03
2019-06-20T11:08:29.153Z,27.10
2019-06-20T11:09:29.120Z,27.25
2019-06-20T11:10:29.116Z,27.52
2019-06-20T11:11:29.052Z,27.86
2019-06-20T11:12:42.612Z,28.02
2019-06-20T11:13:29.006Z,28.29
2019-06-20T11:14:28.917Z,28.17
2019-06-20T11:15:28.881Z,28.01
2019-06-20T11:16:28.846Z,28.01
2019-06-20T11:17:28.801Z,28.04
2019-06-20T11:18:28.819Z,28.12
2019-06-20T11:19:28.758Z,27.95
2019-06-20T11:20:28.683Z,27.75
2019-06-20T11:21:28.648Z,27.93
2019-06-20T11:22:28.605Z,28.08
2019-06-20T11:23:28.591Z,28.25
2019-06-20T11:24:29.195Z,28.57
2019-06-20T11:25:28.487Z,28.44
2019-06-20T11:26:28.453Z,28.26
2019-06-20T11:27:28.446Z,28.14
2019-06-20T11:28:28.366Z,28.27
2019-06-20T11:29:28.418Z,28.39
2019-06-20T11:30:28.327Z,28.41
2019-06-20T11:31:28.249Z,28.37
2019-06-20T11:32:28.215Z,28.41
2019-06-20T11:33:28.172Z,28.47
2019-06-20T11:34:28.146Z,28.54
2019-06-20T11:35:28.174Z,28.79
2019-06-20T11:36:28.056Z,28.78
2019-06-20T11:37:28.017Z,28.70
2019-06-20T11:38:27.979Z,28.75
2019-06-20T11:39:27.944Z,28.93
2019-06-20T11:40:27.943Z,28.82
2019-06-20T11:41:27.863Z,29.08
2019-06-20T11:42:27.850Z,28.78
2019-06-20T11:43:27.837Z,28.44
2019-06-20T11:44:27.792Z,28.20
2019-06-20T11:45:27.714Z,27.93
2019-06-20T11:46:27.675Z,27.48
2019-06-20T11:47:27.670Z,27.32
2019-06-20T11:48:27.594Z,27.39
2019-06-20T11:49:27.594Z,27.25
2019-06-20T11:50:27.515Z,27.12
2019-06-20T11:51:27.512Z,27.22
2019-06-20T11:52:27.448Z,27.25
2019-06-20T11:53:27.400Z,27.36
2019-06-20T11:54:27.372Z,27.65
2019-06-20T11:55:27.329Z,27.68
2019-06-20T11:56:27.319Z,27.71
2019-06-20T11:57:27.245Z,27.73
2019-06-20T11:58:27.212Z,27.45
2019-06-20T11:59:27.210Z,27.39
2019-06-20T12:00:27.134Z,27.35
2019-06-20T12:01:32.977Z,27.27
2019-06-20T12:02:27.057Z,27.21
2019-06-20T12:03:27.013Z,27.21
2019-06-20T12:04:27.013Z,27.18
2019-06-20T12:05:26.970Z,27.00
2019-06-20T12:06:26.896Z,26.83
2019-06-20T12:07:26.857Z,26.60
2019-06-20T12:08:26.835Z,26.59
2019-06-20T12:09:26.815Z,26.37
2019-06-20T12:10:26.745Z,26.06
2019-06-20T12:11:26.703Z,26.03
2019-06-20T12:12:26.665Z,25.93
2019-06-20T12:13:26.634Z,25.87
2019-06-20T12:14:26.618Z,25.90
2019-06-20T12:15:26.579Z,25.91
2019-06-20T12:16:26.518Z,25.84
2019-06-20T12:17:26.465Z,25.77
2019-06-20T12:18:26.425Z,25.68
2019-06-20T12:19:26.396Z,25.65
2019-06-20T12:20:26.380Z,25.70
2019-06-20T12:21:26.307Z,25.60
2019-06-20T12:22:26.268Z,25.54
2019-06-20T12:23:26.233Z,25.47
2019-06-20T12:24:26.201Z,25.46
2019-06-20T12:25:26.184Z,25.21
2019-06-20T12:26:26.183Z,25.08
2019-06-20T12:27:26.071Z,25.11
2019-06-20T12:28:26.027Z,25.18
2019-06-20T12:29:25.987Z,25.26
2019-06-20T12:30:25.980Z,25.25
2019-06-20T12:31:25.912Z,24.92
2019-06-20T12:32:25.868Z,24.98
2019-06-20T12:33:25.829Z,25.03
2019-06-20T12:34:25.820Z,25.04
2019-06-20T12:35:25.778Z,25.14
2019-06-20T12:36:25.709Z,25.11
2019-06-20T12:37:25.668Z,25.10
2019-06-20T12:38:25.625Z,25.11
2019-06-20T12:39:25.587Z,25.11
2019-06-20T12:40:25.578Z,25.10
2019-06-20T12:41:25.510Z,24.93
2019-06-20T12:42:25.464Z,24.92
2019-06-20T12:43:25.426Z,25.08
2019-06-20T12:44:25.386Z,24.96
2019-06-20T12:45:25.373Z,24.89
2019-06-20T12:46:25.297Z,24.84
2019-06-20T12:47:25.257Z,24.80
2019-06-20T12:48:25.221Z,24.70
2019-06-20T12:49:25.187Z,24.55
2019-06-20T12:50:25.179Z,24.54
2019-06-20T12:51:25.095Z,24.47
2019-06-20T12:52:25.060Z,24.35